createdAt,value
2023-02-04T00:00:22.872Z,2.77
2023-02-04T00:03:15.335Z,2.79
2023-02-04T00:05:48.212Z,2.78
2023-02-04T00:08:23.636Z,2.77
2023-02-04T00:10:59.164Z,2.77
2023-02-04T00:13:34.115Z,2.76
2023-02-04T00:16:07.376Z,2.76
2023-02-04T00:18:39.930Z,2.76
2023-02-04T00:21:12.404Z,2.74
2023-02-04T00:23:45.127Z,2.71
2023-02-04T00:26:17.965Z,2.69
2023-02-04T00:28:50.270Z,2.67
2023-02-04T00:31:22.628Z,2.68
2023-02-04T00:33:55.057Z,2.67
2023-02-04T00:36:27.411Z,2.63
2023-02-04T00:38:59.869Z,2.60
2023-02-04T00:41:32.489Z,2.55
2023-02-04T00:44:05.425Z,2.51
2023-02-04T00:46:37.723Z,2.46
2023-02-04T00:49:10.938Z,2.45
2023-02-04T00:51:46.729Z,2.46
2023-02-04T00:54:19.236Z,2.44
2023-02-04T00:56:54.403Z,2.44
2023-02-04T00:59:27.061Z,2.37
2023-02-04T01:02:02.542Z,2.25
2023-02-04T01:04:34.968Z,2.13
2023-02-04T01:07:07.392Z,2.08
2023-02-04T01:09:39.849Z,2.03
2023-02-04T01:12:12.426Z,1.95
2023-02-04T01:14:44.821Z,1.88
2023-02-04T01:17:18.553Z,1.82
2023-02-04T01:19:52.381Z,1.78
2023-02-04T01:22:25.969Z,1.74
2023-02-04T01:24:58.592Z,1.73
2023-02-04T01:27:47.823Z,1.69
2023-02-04T01:30:20.848Z,1.67
2023-02-04T01:32:53.253Z,1.64
2023-02-04T01:35:29.275Z,1.62
2023-02-04T01:38:05.040Z,1.61
2023-02-04T01:40:37.977Z,1.61
2023-02-04T01:43:13.831Z,1.60
2023-02-04T01:45:49.770Z,1.60
2023-02-04T01:48:24.041Z,1.61
2023-02-04T01:51:03.355Z,1.58
2023-02-04T01:53:40.175Z,1.55
2023-02-04T01:56:20.200Z,1.51
2023-02-04T01:58:58.959Z,1.46
2023-02-04T02:01:42.027Z,1.41
2023-02-04T02:04:19.960Z,1.39
2023-02-04T02:06:57.351Z,1.36
2023-02-04T02:09:33.094Z,1.33
2023-02-04T02:12:12.084Z,1.31
2023-02-04T02:14:48.033Z,1.28
2023-02-04T02:17:20.486Z,1.26
2023-02-04T02:19:56.688Z,1.24
2023-02-04T02:22:35.047Z,1.20
2023-02-04T02:25:15.567Z,1.18
2023-02-04T02:27:49.046Z,1.18
2023-02-04T02:30:23.020Z,1.17
2023-02-04T02:32:56.013Z,1.14
2023-02-04T02:35:31.714Z,1.09
2023-02-04T02:38:04.984Z,1.08
2023-02-04T02:40:37.980Z,1.08
2023-02-04T02:43:19.119Z,1.06
2023-02-04T02:45:51.986Z,1.04
2023-02-04T02:48:24.569Z,1.01
2023-02-04T02:51:00.983Z,0.99
2023-02-04T02:53:34.144Z,0.99
2023-02-04T02:56:16.277Z,0.95
2023-02-04T02:58:52.170Z,0.92
2023-02-04T03:01:24.664Z,0.87
2023-02-04T03:04:02.288Z,0.88
2023-02-04T03:06:37.707Z,1.04
2023-02-04T03:09:10.239Z,1.23
2023-02-04T03:11:51.742Z,0.83
2023-02-04T03:14:33.445Z,0.67
2023-02-04T03:17:09.738Z,0.58
2023-02-04T03:19:42.791Z,0.46
2023-02-04T03:22:16.021Z,0.30
2023-02-04T03:24:52.173Z,0.17
2023-02-04T03:27:26.275Z,-0.01
2023-02-04T03:30:08.835Z,-0.13
2023-02-04T03:32:42.568Z,-0.22
2023-02-04T03:35:20.838Z,-0.32
2023-02-04T03:37:57.024Z,-0.40
2023-02-04T03:40:30.529Z,-0.46
2023-02-04T03:43:06.044Z,-0.50
2023-02-04T03:45:45.311Z,-0.53
2023-02-04T03:48:23.706Z,-0.55
2023-02-04T03:50:59.182Z,-0.63
2023-02-04T03:53:31.861Z,-0.71
2023-02-04T03:56:07.295Z,-0.75
2023-02-04T03:58:42.250Z,-0.79
2023-02-04T04:01:18.833Z,-0.85
2023-02-04T04:03:51.245Z,-0.89
2023-02-04T04:06:25.241Z,-0.93
2023-02-04T04:09:01.118Z,-0.94
2023-02-04T04:11:33.504Z,-0.96
2023-02-04T04:14:05.924Z,-0.99
2023-02-04T04:16:39.460Z,-1.01
2023-02-04T04:19:13.696Z,-1.03
2023-02-04T04:21:46.097Z,-1.04
2023-02-04T04:24:18.693Z,-1.06
2023-02-04T04:26:51.031Z,-1.09
2023-02-04T04:29:25.328Z,-1.15
2023-02-04T04:31:57.932Z,-1.20
2023-02-04T04:34:31.492Z,-1.20
2023-02-04T04:37:07.216Z,-1.21
2023-02-04T04:39:42.583Z,-1.25
2023-02-04T04:42:21.616Z,-1.30
2023-02-04T04:44:56.523Z,-1.33
2023-02-04T04:47:32.436Z,-1.36
2023-02-04T04:50:05.041Z,-1.38
2023-02-04T04:52:40.682Z,-1.40
2023-02-04T04:55:15.832Z,-1.41
2023-02-04T04:57:51.050Z,-1.42
2023-02-04T05:00:29.832Z,-1.40
2023-02-04T05:03:09.942Z,-1.40
2023-02-04T05:05:52.216Z,-1.41
2023-02-04T05:08:33.033Z,-1.42
2023-02-04T05:11:10.073Z,-1.44
2023-02-04T05:13:49.135Z,-1.46
2023-02-04T05:16:21.829Z,-1.48
2023-02-04T05:19:00.817Z,-1.50
2023-02-04T05:21:37.139Z,-1.51
2023-02-04T05:24:09.733Z,-1.51
2023-02-04T05:26:42.145Z,-1.50
2023-02-04T05:29:17.951Z,-1.51
2023-02-04T05:31:51.969Z,-1.50
2023-02-04T05:34:25.599Z,-1.52
2023-02-04T05:37:01.953Z,-1.56
2023-02-04T05:39:43.397Z,-1.56
2023-02-04T05:42:17.867Z,-1.56
2023-02-04T05:44:51.290Z,-1.57
2023-02-04T05:47:23.723Z,-1.56
2023-02-04T05:49:56.500Z,-1.55
2023-02-04T05:52:32.353Z,-1.54
2023-02-04T05:55:04.939Z,-1.54
2023-02-04T05:57:42.112Z,-1.54
2023-02-04T06:00:17.114Z,-1.53
2023-02-04T06:02:50.133Z,-1.53
2023-02-04T06:05:25.670Z,-1.53
2023-02-04T06:08:00.964Z,-1.52
2023-02-04T06:10:36.721Z,-1.53
2023-02-04T06:13:17.366Z,-1.52
2023-02-04T06:15:55.591Z,-1.53
2023-02-04T06:18:36.771Z,-1.51
2023-02-04T06:21:18.106Z,-1.51
2023-02-04T06:23:57.851Z,-1.50
2023-02-04T06:26:30.245Z,-1.50
2023-02-04T06:29:02.634Z,-1.51
2023-02-04T06:31:39.253Z,-1.51
2023-02-04T06:34:18.048Z,-1.50
2023-02-04T06:36:54.257Z,-1.50
2023-02-04T06:39:28.020Z,-1.50
2023-02-04T06:42:03.783Z,-1.50
2023-02-04T06:44:43.316Z,-1.47
2023-02-04T06:47:22.457Z,-1.46
2023-02-04T06:49:58.337Z,-1.45
2023-02-04T06:52:30.818Z,-1.44
2023-02-04T06:55:03.140Z,-1.44
2023-02-04T06:57:35.451Z,-1.43
2023-02-04T07:00:10.447Z,-1.42
2023-02-04T07:02:46.396Z,-1.42
2023-02-04T07:05:18.940Z,-1.40
2023-02-04T07:07:54.605Z,-1.42
2023-02-04T07:10:27.034Z,-1.39
2023-02-04T07:12:59.494Z,-1.37
2023-02-04T07:15:31.807Z,-1.36
2023-02-04T07:18:06.600Z,-1.36
2023-02-04T07:20:39.063Z,-1.35
2023-02-04T07:23:11.485Z,-1.31
2023-02-04T07:25:44.285Z,-1.27
2023-02-04T07:28:16.634Z,-1.24
2023-02-04T07:30:49.213Z,-1.21
2023-02-04T07:33:21.671Z,-1.21
2023-02-04T07:35:54.038Z,-1.19
2023-02-04T07:38:26.517Z,-1.15
2023-02-04T07:40:59.202Z,-1.12
2023-02-04T07:43:33.170Z,-1.09
2023-02-04T07:46:08.107Z,-1.08
2023-02-04T07:48:40.447Z,-1.08
2023-02-04T07:51:12.677Z,-1.08
2023-02-04T07:53:44.982Z,-1.08
2023-02-04T07:56:17.223Z,-1.08
2023-02-04T07:58:49.647Z,-1.07
2023-02-04T08:01:22.010Z,-1.06
2023-02-04T08:03:54.619Z,-1.04
2023-02-04T08:06:26.926Z,-0.98
2023-02-04T08:08:59.215Z,-0.91
2023-02-04T08:11:31.456Z,-0.82
2023-02-04T08:14:06.239Z,-0.77
2023-02-04T08:16:40.786Z,-0.76
2023-02-04T08:19:19.034Z,-0.80
2023-02-04T08:21:52.166Z,-0.77
2023-02-04T08:24:24.552Z,-0.72
2023-02-04T08:26:58.359Z,-0.66
2023-02-04T08:29:30.633Z,-0.60
2023-02-04T08:32:04.904Z,-0.56
2023-02-04T08:34:37.129Z,-0.60
2023-02-04T08:37:09.522Z,-0.49
2023-02-04T08:39:46.350Z,-0.19
2023-02-04T08:42:18.737Z,1.02
2023-02-04T08:44:52.796Z,2.93
2023-02-04T08:47:25.260Z,4.91
2023-02-04T08:49:57.641Z,6.18
2023-02-04T08:52:31.135Z,6.70
2023-02-04T08:55:06.769Z,8.15
2023-02-04T08:57:42.944Z,9.20
2023-02-04T09:00:19.472Z,9.91
2023-02-04T09:02:51.902Z,11.14
2023-02-04T09:05:24.288Z,10.98
2023-02-04T09:07:56.671Z,11.33
2023-02-04T09:10:29.238Z,12.80
2023-02-04T09:13:02.389Z,13.55
2023-02-04T09:15:35.162Z,13.14
2023-02-04T09:18:19.379Z,12.96
2023-02-04T09:20:53.412Z,12.54
2023-02-04T09:23:32.562Z,11.28
2023-02-04T09:26:08.172Z,9.63
2023-02-04T09:28:41.865Z,8.04
2023-02-04T09:31:21.884Z,6.76
2023-02-04T09:34:02.576Z,5.63
2023-02-04T09:36:42.887Z,4.76
2023-02-04T09:39:15.260Z,3.96
2023-02-04T09:41:47.862Z,3.50
2023-02-04T09:44:24.904Z,3.85
2023-02-04T09:47:00.290Z,5.15
2023-02-04T09:49:33.814Z,4.71
2023-02-04T09:52:14.130Z,4.09
2023-02-04T09:54:47.860Z,4.50
2023-02-04T09:57:22.663Z,6.04
2023-02-04T09:59:59.486Z,6.78
2023-02-04T10:02:31.960Z,6.45
2023-02-04T10:05:04.783Z,5.57
2023-02-04T10:07:37.167Z,4.68
2023-02-04T10:10:18.383Z,4.37
2023-02-04T10:12:52.631Z,4.19
2023-02-04T10:15:25.913Z,3.88
2023-02-04T10:18:04.943Z,4.10
2023-02-04T10:20:40.803Z,5.18
2023-02-04T10:23:17.273Z,5.96
2023-02-04T10:25:49.914Z,5.40
2023-02-04T10:28:22.612Z,4.63
2023-02-04T10:30:55.104Z,3.94
2023-02-04T10:33:27.802Z,3.49
2023-02-04T10:36:00.634Z,3.11
2023-02-04T10:38:33.146Z,3.32
2023-02-04T10:41:06.933Z,4.00
2023-02-04T10:43:39.369Z,4.42
2023-02-04T10:46:11.942Z,5.57
2023-02-04T10:48:44.588Z,6.98
2023-02-04T10:51:17.679Z,8.35
2023-02-04T10:54:07.652Z,8.75
2023-02-04T10:56:40.269Z,7.84
2023-02-04T10:59:24.004Z,7.03
2023-02-04T11:01:58.594Z,6.20
2023-02-04T11:04:31.600Z,5.52
2023-02-04T11:07:09.595Z,4.93
2023-02-04T11:09:48.036Z,4.45
2023-02-04T11:12:37.316Z,4.04
2023-02-04T11:15:41.912Z,3.73
2023-02-04T11:18:27.758Z,3.43
2023-02-04T11:21:01.723Z,3.29
2023-02-04T11:23:37.246Z,3.43
2023-02-04T11:26:17.595Z,4.39
2023-02-04T11:29:07.040Z,5.39
2023-02-04T11:32:01.530Z,6.14
2023-02-04T11:34:47.471Z,6.06
2023-02-04T11:37:35.199Z,5.81
2023-02-04T11:40:24.518Z,5.37
2023-02-04T11:43:02.574Z,4.90
2023-02-04T11:45:37.352Z,4.43
2023-02-04T11:48:16.463Z,4.12
2023-02-04T11:50:59.497Z,3.81
2023-02-04T11:53:38.623Z,3.44
2023-02-04T11:56:20.275Z,3.06
2023-02-04T11:58:55.177Z,2.71
2023-02-04T12:01:32.114Z,2.55
2023-02-04T12:04:07.213Z,2.50
2023-02-04T12:06:42.054Z,2.42
2023-02-04T12:09:27.989Z,2.29
2023-02-04T12:12:01.963Z,2.10
2023-02-04T12:14:37.327Z,1.94
2023-02-04T12:17:19.401Z,1.80
2023-02-04T12:19:50.127Z,1.77
2023-02-04T12:22:22.485Z,1.94
2023-02-04T12:24:54.844Z,2.06
2023-02-04T12:27:27.216Z,2.11
2023-02-04T12:29:59.434Z,2.06
2023-02-04T12:32:31.976Z,1.98
2023-02-04T12:35:04.634Z,1.85
2023-02-04T12:37:36.976Z,1.67
2023-02-04T12:40:11.487Z,1.50
2023-02-04T12:42:43.830Z,1.38
2023-02-04T12:45:18.559Z,1.25
2023-02-04T12:47:51.270Z,1.11
2023-02-04T12:50:23.982Z,0.96
2023-02-04T12:52:58.237Z,0.90
2023-02-04T12:55:31.655Z,0.94
2023-02-04T12:58:04.283Z,0.94
2023-02-04T13:00:36.676Z,0.88
2023-02-04T13:03:08.982Z,0.80
2023-02-04T13:05:41.332Z,0.72
2023-02-04T13:08:13.595Z,0.62
2023-02-04T13:10:52.091Z,0.51
2023-02-04T13:13:25.254Z,0.41
2023-02-04T13:15:57.482Z,0.32
2023-02-04T13:18:34.068Z,0.25
2023-02-04T13:21:06.983Z,0.20
2023-02-04T13:23:39.314Z,0.20
2023-02-04T13:26:11.819Z,0.23
2023-02-04T13:28:49.473Z,0.22
2023-02-04T13:31:22.897Z,0.22
2023-02-04T13:33:55.346Z,0.26
2023-02-04T13:36:30.500Z,0.28
2023-02-04T13:39:05.647Z,0.35
2023-02-04T13:41:38.290Z,0.38
2023-02-04T13:44:10.810Z,0.36
2023-02-04T13:46:43.339Z,0.33
2023-02-04T13:49:15.945Z,0.25
2023-02-04T13:51:48.265Z,0.17
2023-02-04T13:54:21.052Z,0.09
2023-02-04T13:56:55.712Z,0.03
2023-02-04T13:59:29.574Z,-0.02
2023-02-04T14:02:02.476Z,-0.04
2023-02-04T14:04:36.678Z,-0.05
2023-02-04T14:07:12.620Z,-0.04
2023-02-04T14:09:45.025Z,-0.03
2023-02-04T14:12:17.392Z,0.06
2023-02-04T14:14:49.745Z,0.11
2023-02-04T14:17:22.084Z,0.08
2023-02-04T14:19:54.795Z,0.09
2023-02-04T14:22:27.165Z,0.16
2023-02-04T14:25:02.221Z,0.19
2023-02-04T14:27:35.509Z,0.29
2023-02-04T14:30:09.273Z,0.41
2023-02-04T14:32:41.865Z,0.36
2023-02-04T14:35:15.103Z,0.28
2023-02-04T14:37:47.739Z,0.24
2023-02-04T14:40:21.416Z,0.20
2023-02-04T14:42:54.030Z,0.21
2023-02-04T14:45:29.203Z,0.16
2023-02-04T14:48:04.491Z,0.16
2023-02-04T14:50:37.284Z,0.07
2023-02-04T14:53:09.608Z,-0.05
2023-02-04T14:55:41.921Z,-0.12
2023-02-04T14:58:18.495Z,-0.15
2023-02-04T15:00:51.156Z,-0.18
2023-02-04T15:03:24.040Z,-0.21
2023-02-04T15:05:58.940Z,-0.26
2023-02-04T15:08:32.867Z,-0.28
2023-02-04T15:11:05.662Z,-0.31
2023-02-04T15:18:35.135Z,-0.50
2023-02-04T15:26:01.491Z,-0.64
2023-02-04T15:28:34.002Z,-0.68
2023-02-04T15:31:14.148Z,-0.69
2023-02-04T15:33:49.787Z,-0.73
2023-02-04T15:37:53.169Z,-0.77
2023-02-04T15:44:49.601Z,-0.88
2023-02-04T15:52:55.898Z,-0.95
2023-02-04T15:56:00.274Z,-0.96
2023-02-04T15:58:33.084Z,-0.95
2023-02-04T16:01:29.680Z,-0.95
2023-02-04T16:04:02.393Z,-0.95
2023-02-04T16:11:27.838Z,-0.93
2023-02-04T16:14:06.298Z,-0.92
2023-02-04T16:16:38.705Z,-0.93
2023-02-04T16:19:17.277Z,-0.97
2023-02-04T16:21:52.841Z,-0.98
2023-02-04T16:25:21.743Z,-0.98
2023-02-04T16:28:35.625Z,-0.98
2023-02-04T16:31:11.083Z,-0.98
2023-02-04T16:34:33.849Z,-0.99
2023-02-04T16:37:08.037Z,-0.99
2023-02-04T16:40:53.073Z,-0.98
2023-02-04T16:43:25.985Z,-0.96
2023-02-04T16:45:58.336Z,-0.95
2023-02-04T16:48:37.557Z,-0.99
2023-02-04T16:51:13.151Z,-0.99
2023-02-04T16:54:42.089Z,-0.97
2023-02-04T17:01:47.272Z,-1.01
2023-02-04T17:04:26.657Z,-0.99
2023-02-04T17:12:42.075Z,-0.98
2023-02-04T17:15:35.895Z,-1.00
2023-02-04T17:18:15.424Z,-1.01
2023-02-04T17:20:47.756Z,-1.02
2023-02-04T17:23:29.491Z,-1.04
2023-02-04T17:31:18.057Z,-1.06
2023-02-04T17:34:41.781Z,-1.05
2023-02-04T17:47:26.698Z,-1.11
2023-02-04T17:54:51.500Z,-1.20
2023-02-04T17:58:56.173Z,-1.20
2023-02-04T18:01:37.359Z,-1.19
2023-02-04T18:04:13.747Z,-1.18
2023-02-04T18:06:51.934Z,-1.18
2023-02-04T18:09:24.226Z,-1.18
2023-02-04T18:11:56.516Z,-1.18
2023-02-04T18:14:32.753Z,-1.16
2023-02-04T18:17:17.125Z,-1.13
2023-02-04T18:19:49.608Z,-1.08
2023-02-04T18:22:25.047Z,-1.06
2023-02-04T18:24:59.113Z,-1.05
2023-02-04T18:27:37.333Z,-1.07
2023-02-04T18:30:21.306Z,-1.10
2023-02-04T18:32:55.550Z,-1.12
2023-02-04T18:35:44.481Z,-1.15
2023-02-04T18:38:32.298Z,-1.15
2023-02-04T18:41:24.903Z,-1.13
2023-02-04T18:44:17.641Z,-1.12
2023-02-04T18:46:50.602Z,-1.11
2023-02-04T18:49:42.619Z,-1.10
2023-02-04T19:06:40.590Z,-1.18
2023-02-04T19:12:45.954Z,-1.34
2023-02-04T19:20:35.582Z,-1.47
2023-02-04T19:28:07.345Z,-1.56
2023-02-04T19:34:43.860Z,-1.71
2023-02-04T19:44:52.375Z,-1.87
2023-02-04T19:48:47.295Z,-1.93
2023-02-04T19:57:10.328Z,-2.07
2023-02-04T19:59:50.271Z,-2.08
2023-02-04T20:31:03.241Z,-1.89
2023-02-04T20:50:02.455Z,-2.01
2023-02-04T20:53:26.246Z,-2.01
2023-02-04T21:09:04.432Z,-2.01
2023-02-04T21:12:04.302Z,-2.00
2023-02-04T21:14:36.792Z,-2.02
2023-02-04T21:17:41.791Z,-2.06
2023-02-04T21:21:23.240Z,-2.10
2023-02-04T21:24:03.946Z,-2.14
2023-02-04T21:27:26.062Z,-2.16
2023-02-04T21:30:04.878Z,-2.16
2023-02-04T21:37:58.826Z,-2.13
2023-02-04T21:41:26.670Z,-2.13
2023-02-04T21:48:50.580Z,-2.11
2023-02-04T21:52:23.102Z,-2.11
2023-02-04T22:00:33.867Z,-2.20
2023-02-04T22:12:37.967Z,-2.13
2023-02-04T22:16:07.311Z,-2.11
2023-02-04T22:23:29.284Z,-2.05
2023-02-04T22:30:32.739Z,-2.02
2023-02-04T22:33:05.180Z,-2.02
2023-02-04T22:39:47.800Z,-1.96
2023-02-04T22:42:20.257Z,-1.94
2023-02-04T22:44:59.206Z,-1.95
2023-02-04T22:47:33.390Z,-1.93
2023-02-04T22:50:12.574Z,-1.91
2023-02-04T22:52:49.133Z,-1.91
2023-02-04T22:59:53.979Z,-1.91
2023-02-04T23:02:26.381Z,-1.92
2023-02-04T23:04:58.869Z,-1.90
